Air Navigation Services of Czech Republic
Airport: LKKU Updated:  19.01.2018 14:51:05  UTC
 METAR LKKU 19.01. 14:00 ...
METAR LKKU 191400Z 23006KT 8000 FEW002 SCT005 02/02 Q1009=